sensor_id;sensor_type;location;lat;lon;timestamp;pressure;altitude;pressure_sealevel;temperature;humidity
21086;BME280;34247;50.064;19.970;2023-03-22T00:00:58;99272.28;;;10.80;100.00
21086;BME280;34247;50.064;19.970;2023-03-22T00:02:02;99265.06;;;10.82;100.00
21086;BME280;34247;50.064;19.970;2023-03-22T00:03:06;99273.03;;;10.82;100.00
21086;BME280;34247;50.064;19.970;2023-03-22T00:04:10;99271.31;;;10.81;100.00
21086;BME280;34247;50.064;19.970;2023-03-22T00:05:15;99271.22;;;10.83;100.00
21086;BME280;34247;50.064;19.970;2023-03-22T00:06:19;99266.97;;;10.80;100.00
21086;BME280;34247;50.064;19.970;2023-03-22T00:07:23;99264.31;;;10.80;100.00
21086;BME280;34247;50.064;19.970;2023-03-22T00:08:30;99261.75;;;10.78;100.00
21086;BME280;34247;50.064;19.970;2023-03-22T00:09:38;99260.16;;;10.76;100.00
21086;BME280;34247;50.064;19.970;2023-03-22T00:10:41;99264.50;;;10.77;100.00
21086;BME280;34247;50.064;19.970;2023-03-22T00:11:46;99259.31;;;10.75;100.00
21086;BME280;34247;50.064;19.970;2023-03-22T00:12:53;99265.47;;;10.76;100.00
21086;BME280;34247;50.064;19.970;2023-03-22T00:13:58;99264.50;;;10.77;100.00
21086;BME280;34247;50.064;19.970;2023-03-22T00:15:23;99269.09;;;10.75;100.00
21086;BME280;34247;50.064;19.970;2023-03-22T00:16:27;99257.72;;;10.73;100.00
21086;BME280;34247;50.064;19.970;2023-03-22T00:17:32;99260.47;;;10.71;100.00
21086;BME280;34247;50.064;19.970;2023-03-22T00:18:36;99257.19;;;10.68;100.00
21086;BME280;34247;50.064;19.970;2023-03-22T00:19:40;99259.19;;;10.64;100.00
21086;BME280;34247;50.064;19.970;2023-03-22T00:20:54;99262.63;;;10.66;100.00
21086;BME280;34247;50.064;19.970;2023-03-22T00:21:58;99252.09;;;10.65;100.00
21086;BME280;34247;50.064;19.970;2023-03-22T00:23:04;99249.53;;;10.63;100.00
21086;BME280;34247;50.064;19.970;2023-03-22T00:24:08;99246.03;;;10.63;100.00
21086;BME280;34247;50.064;19.970;2023-03-22T00:25:12;99255.81;;;10.62;100.00
21086;BME280;34247;50.064;19.970;2023-03-22T00:26:16;99252.31;;;10.62;100.00
21086;BME280;34247;50.064;19.970;2023-03-22T00:27:20;99255.91;;;10.61;100.00
21086;BME280;34247;50.064;19.970;2023-03-22T00:28:24;99251.47;;;10.61;100.00
21086;BME280;34247;50.064;19.970;2023-03-22T00:29:28;99256.03;;;10.59;100.00
21086;BME280;34247;50.064;19.970;2023-03-22T00:30:33;99251.69;;;10.58;100.00
21086;BME280;34247;50.064;19.970;2023-03-22T00:31:37;99250.06;;;10.56;100.00
21086;BME280;34247;50.064;19.970;2023-03-22T00:32:41;99249.09;;;10.57;100.00
21086;BME280;34247;50.064;19.970;2023-03-22T00:33:45;99237.66;;;10.56;100.00
21086;BME280;34247;50.064;19.970;2023-03-22T00:34:48;99249.09;;;10.57;100.00
21086;BME280;34247;50.064;19.970;2023-03-22T00:35:56;99247.28;;;10.57;100.00
21086;BME280;34247;50.064;19.970;2023-03-22T00:37:01;99246.56;;;10.55;100.00
21086;BME280;34247;50.064;19.970;2023-03-22T00:38:04;99247.41;;;10.56;100.00
21086;BME280;34247;50.064;19.970;2023-03-22T00:39:09;99246.69;;;10.54;100.00
21086;BME280;34247;50.064;19.970;2023-03-22T00:40:13;99241.47;;;10.52;100.00
21086;BME280;34247;50.064;19.970;2023-03-22T00:41:22;99243.06;;;10.55;100.00
21086;BME280;34247;50.064;19.970;2023-03-22T00:42:27;99243.19;;;10.53;100.00
21086;BME280;34247;50.064;19.970;2023-03-22T00:43:30;99233.63;;;10.51;100.00
21086;BME280;34247;50.064;19.970;2023-03-22T00:44:34;99235.75;;;10.45;100.00
21086;BME280;34247;50.064;19.970;2023-03-22T00:45:38;99238.28;;;10.47;100.00
21086;BME280;34247;50.064;19.970;2023-03-22T00:46:46;99240.09;;;10.46;100.00
21086;BME280;34247;50.064;19.970;2023-03-22T00:47:50;99236.59;;;10.46;100.00
21086;BME280;34247;50.064;19.970;2023-03-22T00:48:54;99241.91;;;10.46;100.00
21086;BME280;34247;50.064;19.970;2023-03-22T00:49:58;99239.47;;;10.43;100.00
21086;BME280;34247;50.064;19.970;2023-03-22T00:51:05;99236.38;;;10.36;100.00
21086;BME280;34247;50.064;19.970;2023-03-22T00:52:10;99234.66;;;10.35;100.00
21086;BME280;34247;50.064;19.970;2023-03-22T00:53:14;99239.44;;;10.30;100.00
21086;BME280;34247;50.064;19.970;2023-03-22T00:54:18;99233.28;;;10.30;100.00
21086;BME280;34247;50.064;19.970;2023-03-22T00:55:22;99238.47;;;10.31;100.00
21086;BME280;34247;50.064;19.970;2023-03-22T00:56:25;99241.03;;;10.33;100.00
21086;BME280;34247;50.064;19.970;2023-03-22T00:57:31;99234.88;;;10.32;100.00
21086;BME280;34247;50.064;19.970;2023-03-22T00:58:35;99240.06;;;10.34;100.00
21086;BME280;34247;50.064;19.970;2023-03-22T00:59:39;99241.03;;;10.33;100.00
21086;BME280;34247;50.064;19.970;2023-03-22T01:00:42;99237.41;;;10.34;100.00
21086;BME280;34247;50.064;19.970;2023-03-22T01:01:47;99234.03;;;10.32;100.00
21086;BME280;34247;50.064;19.970;2023-03-22T01:02:51;99242.72;;;10.34;100.00
21086;BME280;34247;50.064;19.970;2023-03-22T01:04:02;99238.47;;;10.31;100.00
21086;BME280;34247;50.064;19.970;2023-03-22T01:05:09;99235.84;;;10.31;100.00
21086;BME280;34247;50.064;19.970;2023-03-22T01:06:18;99235.84;;;10.31;100.00
21086;BME280;34247;50.064;19.970;2023-03-22T01:07:22;99238.47;;;10.31;100.00
21086;BME280;34247;50.064;19.970;2023-03-22T01:08:26;99239.34;;;10.32;100.00
21086;BME280;34247;50.064;19.970;2023-03-22T01:09:35;99230.53;;;10.31;100.00
21086;BME280;34247;50.064;19.970;2023-03-22T01:10:41;99228.84;;;10.30;100.00
21086;BME280;34247;50.064;19.970;2023-03-22T01:11:44;99232.53;;;10.28;100.00
21086;BME280;34247;50.064;19.970;2023-03-22T01:12:48;99229.03;;;10.27;100.00
21086;BME280;34247;50.064;19.970;2023-03-22T01:13:54;99232.53;;;10.28;100.00
21086;BME280;34247;50.064;19.970;2023-03-22T01:14:58;99228.84;;;10.30;100.00
21086;BME280;34247;50.064;19.970;2023-03-22T01:16:05;99225.34;;;10.30;100.00
21086;BME280;34247;50.064;19.970;2023-03-22T01:17:09;99226.19;;;10.30;100.00
21086;BME280;34247;50.064;19.970;2023-03-22T01:18:13;99228.84;;;10.30;100.00
21086;BME280;34247;50.064;19.970;2023-03-22T01:19:17;99234.88;;;10.32;100.00
21086;BME280;34247;50.064;19.970;2023-03-22T01:20:21;99225.09;;;10.33;100.00
21086;BME280;34247;50.064;19.970;2023-03-22T01:21:25;99229.56;;;10.32;100.00
21086;BME280;34247;50.064;19.970;2023-03-22T01:22:29;99225.09;;;10.33;100.00
21086;BME280;34247;50.064;19.970;2023-03-22T01:23:33;99223.41;;;10.32;100.00
21086;BME280;34247;50.064;19.970;2023-03-22T01:24:37;99225.09;;;10.33;100.00
21086;BME280;34247;50.064;19.970;2023-03-22T01:25:41;99220.66;;;10.33;100.00
21086;BME280;34247;50.064;19.970;2023-03-22T01:26:44;99222.34;;;10.34;100.00
21086;BME280;34247;50.064;19.970;2023-03-22T01:27:48;99220.88;;;10.30;100.00
21086;BME280;34247;50.064;19.970;2023-03-22T01:28:52;99213.66;;;10.32;100.00
21086;BME280;34247;50.064;19.970;2023-03-22T01:29:55;99211.09;;;10.31;100.00
21086;BME280;34247;50.064;19.970;2023-03-22T01:31:02;99211.09;;;10.31;100.00
21086;BME280;34247;50.064;19.970;2023-03-22T01:32:07;99206.66;;;10.31;100.00
21086;BME280;34247;50.064;19.970;2023-03-22T01:33:11;99215.34;;;10.33;100.00
21086;BME280;34247;50.064;19.970;2023-03-22T01:34:16;99210.03;;;10.33;100.00
21086;BME280;34247;50.064;19.970;2023-03-22T01:35:19;99211.94;;;10.31;100.00
21086;BME280;34247;50.064;19.970;2023-03-22T01:36:23;99210.88;;;10.34;100.00
21086;BME280;34247;50.064;19.970;2023-03-22T01:37:27;99207.38;;;10.33;100.00
21086;BME280;34247;50.064;19.970;2023-03-22T01:38:31;99199.31;;;10.35;100.00
21086;BME280;34247;50.064;19.970;2023-03-22T01:39:34;99201.97;;;10.35;100.00
21086;BME280;34247;50.064;19.970;2023-03-22T01:40:39;99195.94;;;10.33;100.00
21086;BME280;34247;50.064;19.970;2023-03-22T01:41:43;99195.19;;;10.31;100.00
21086;BME280;34247;50.064;19.970;2023-03-22T01:42:47;99196.88;;;10.32;100.00
21086;BME280;34247;50.064;19.970;2023-03-22T01:44:16;99199.66;;;10.30;100.00
21086;BME280;34247;50.064;19.970;2023-03-22T01:45:41;99189.56;;;10.23;100.00
21086;BME280;34247;50.064;19.970;2023-03-22T01:46:48;99189.44;;;10.24;100.00
21086;BME280;34247;50.064;19.970;2023-03-22T01:48:00;99187.66;;;10.25;100.00
21086;BME280;34247;50.064;19.970;2023-03-22T01:49:30;99187.75;;;10.23;100.00
21086;BME280;34247;50.064;19.970;2023-03-22T01:50:38;99181.75;;;10.19;100.00
21086;BME280;34247;50.064;19.970;2023-03-22T01:51:48;99188.03;;;10.18;100.00
21086;BME280;34247;50.064;19.970;2023-03-22T01:52:56;99186.63;;;10.13;100.00
21086;BME280;34247;50.064;19.970;2023-03-22T01:54:09;99179.97;;;10.07;100.00
21086;BME280;34247;50.064;19.970;2023-03-22T01:55:13;99190.97;;;10.01;100.00
21086;BME280;34247;50.064;19.970;2023-03-22T01:56:24;99179.31;;;10.04;100.00
21086;BME280;34247;50.064;19.970;2023-03-22T01:57:33;99178.47;;;10.03;100.00
21086;BME280;34247;50.064;19.970;2023-03-22T01:58:41;99168.81;;;10.02;100.00
21086;BME280;34247;50.064;19.970;2023-03-22T01:59:45;99174.00;;;10.04;100.00
21086;BME280;34247;50.064;19.970;2023-03-22T02:00:51;99171.56;;;10.01;100.00
21086;BME280;34247;50.064;19.970;2023-03-22T02:01:58;99165.50;;;9.99;100.00
21086;BME280;34247;50.064;19.970;2023-03-22T02:03:08;99156.81;;;9.97;100.00
21086;BME280;34247;50.064;19.970;2023-03-22T02:04:22;99163.06;;;9.95;100.00
21086;BME280;34247;50.064;19.970;2023-03-22T02:05:30;99157.34;;;9.89;100.00
21086;BME280;34247;50.064;19.970;2023-03-22T02:06:36;99154.13;;;9.84;100.00
21086;BME280;34247;50.064;19.970;2023-03-22T02:07:42;99157.00;;;9.81;100.00
21086;BME280;34247;50.064;19.970;2023-03-22T02:08:48;99151.16;;;9.76;100.00
21086;BME280;34247;50.064;19.970;2023-03-22T02:09:55;99146.25;;;9.70;100.00
21086;BME280;34247;50.064;19.970;2023-03-22T02:11:02;99150.63;;;9.71;100.00
21086;BME280;34247;50.064;19.970;2023-03-22T02:12:24;99147.22;;;9.68;100.00
21086;BME280;34247;50.064;19.970;2023-03-22T02:14:08;99150.69;;;9.56;100.00
21086;BME280;34247;50.064;19.970;2023-03-22T02:17:23;99151.63;;;9.55;100.00
21086;BME280;34247;50.064;19.970;2023-03-22T02:20:31;99146.66;;;9.51;100.00
21086;BME280;34247;50.064;19.970;2023-03-22T02:25:51;99149.28;;;9.51;100.00
21086;BME280;34247;50.064;19.970;2023-03-22T02:29:46;99156.78;;;9.44;100.00
21086;BME280;34247;50.064;19.970;2023-03-22T02:36:46;99152.09;;;9.35;100.00
21086;BME280;34247;50.064;19.970;2023-03-22T02:44:41;99147.25;;;9.42;100.00
21086;BME280;34247;50.064;19.970;2023-03-22T02:47:14;99142.16;;;9.38;100.00
21086;BME280;34247;50.064;19.970;2023-03-22T02:48:30;99143.00;;;9.39;100.00
21086;BME280;34247;50.064;19.970;2023-03-22T02:49:58;99139.50;;;9.38;100.00
21086;BME280;34247;50.064;19.970;2023-03-22T02:51:21;99137.06;;;9.35;100.00
21086;BME280;34247;50.064;19.970;2023-03-22T02:52:36;99133.63;;;9.33;100.00
21086;BME280;34247;50.064;19.970;2023-03-22T02:54:00;99144.34;;;9.32;100.00
21086;BME280;34247;50.064;19.970;2023-03-22T02:55:47;99137.34;;;9.31;100.00
21086;BME280;34247;50.064;19.970;2023-03-22T02:57:06;99141.06;;;9.28;100.00
21086;BME280;34247;50.064;19.970;2023-03-22T02:59:30;99138.91;;;9.21;100.00
21086;BME280;34247;50.064;19.970;2023-03-22T03:00:36;99135.19;;;9.23;100.00
21086;BME280;34247;50.064;19.970;2023-03-22T03:01:51;99143.16;;;9.23;100.00
21086;BME280;34247;50.064;19.970;2023-03-22T03:03:05;99137.00;;;9.23;100.00
21086;BME280;34247;50.064;19.970;2023-03-22T03:04:21;99137.63;;;9.26;100.00
21086;BME280;34247;50.064;19.970;2023-03-22T03:05:31;99134.25;;;9.24;100.00
21086;BME280;34247;50.064;19.970;2023-03-22T03:06:40;99138.47;;;9.27;100.00
21086;BME280;34247;50.064;19.970;2023-03-22T03:07:56;99142.94;;;9.26;100.00
21086;BME280;34247;50.064;19.970;2023-03-22T03:09:02;99133.41;;;9.24;100.00
21086;BME280;34247;50.064;19.970;2023-03-22T03:10:08;99143.78;;;9.27;100.00
21086;BME280;34247;50.064;19.970;2023-03-22T03:11:14;99141.13;;;9.27;100.00
21086;BME280;34247;50.064;19.970;2023-03-22T03:12:25;99141.91;;;9.29;100.00
21086;BME280;34247;50.064;19.970;2023-03-22T03:13:29;99141.91;;;9.29;100.00
21086;BME280;34247;50.064;19.970;2023-03-22T03:14:32;99139.44;;;9.26;100.00
21086;BME280;34247;50.064;19.970;2023-03-22T03:15:40;99142.09;;;9.26;100.00
21086;BME280;34247;50.064;19.970;2023-03-22T03:17:05;99142.00;;;9.27;100.00
21086;BME280;34247;50.064;19.970;2023-03-22T03:18:50;99146.44;;;9.27;100.00
21086;BME280;34247;50.064;19.970;2023-03-22T03:21:56;99153.84;;;9.22;100.00
21086;BME280;34247;50.064;19.970;2023-03-22T03:23:14;99152.16;;;9.21;100.00
21086;BME280;34247;50.064;19.970;2023-03-22T03:27:22;99150.44;;;9.20;100.00
21086;BME280;34247;50.064;19.970;2023-03-22T03:30:38;99154.44;;;9.13;100.00
21086;BME280;34247;50.064;19.970;2023-03-22T03:32:33;99154.63;;;9.09;100.00
21086;BME280;34247;50.064;19.970;2023-03-22T03:34:23;99151.25;;;9.07;100.00
21086;BME280;34247;50.064;19.970;2023-03-22T03:35:38;99145.13;;;8.93;100.00
21086;BME280;34247;50.064;19.970;2023-03-22T03:37:22;99149.56;;;8.92;100.00
21086;BME280;34247;50.064;19.970;2023-03-22T03:38:33;99154.88;;;8.92;100.00
21086;BME280;34247;50.064;19.970;2023-03-22T03:40:00;99154.09;;;8.90;100.00
21086;BME280;34247;50.064;19.970;2023-03-22T03:41:19;99144.84;;;8.83;100.00
21086;BME280;34247;50.064;19.970;2023-03-22T03:42:27;99145.31;;;8.90;100.00
21086;BME280;34247;50.064;19.970;2023-03-22T03:43:34;99150.41;;;8.93;100.00
21086;BME280;34247;50.064;19.970;2023-03-22T03:44:39;99146.16;;;8.90;100.00
21086;BME280;34247;50.064;19.970;2023-03-22T03:45:46;99153.25;;;8.90;100.00
21086;BME280;34247;50.064;19.970;2023-03-22T03:46:52;99153.34;;;8.88;100.00
21086;BME280;34247;50.064;19.970;2023-03-22T03:48:04;99148.34;;;8.83;100.00
21086;BME280;34247;50.064;19.970;2023-03-22T03:49:11;99149.28;;;8.82;100.00
21086;BME280;34247;50.064;19.970;2023-03-22T03:50:16;99152.25;;;8.78;100.00
21086;BME280;34247;50.064;19.970;2023-03-22T03:51:20;99154.88;;;8.78;100.00
21086;BME280;34247;50.064;19.970;2023-03-22T03:52:24;99154.03;;;8.77;100.00
21086;BME280;34247;50.064;19.970;2023-03-22T03:53:29;99152.41;;;8.75;100.00
21086;BME280;34247;50.064;19.970;2023-03-22T03:54:34;99153.56;;;8.71;100.00
21086;BME280;34247;50.064;19.970;2023-03-22T03:55:38;99151.94;;;8.68;100.00
21086;BME280;34247;50.064;19.970;2023-03-22T03:56:42;99149.78;;;8.61;100.00
21086;BME280;34247;50.064;19.970;2023-03-22T03:57:46;99149.63;;;8.49;100.00
21086;BME280;34247;50.064;19.970;2023-03-22T03:58:50;99151.50;;;8.47;100.00
21086;BME280;34247;50.064;19.970;2023-03-22T03:59:54;99148.00;;;8.47;100.00
21086;BME280;34247;50.064;19.970;2023-03-22T04:00:58;99154.22;;;8.46;100.00
21086;BME280;34247;50.064;19.970;2023-03-22T04:02:02;99162.16;;;8.46;100.00
21086;BME280;34247;50.064;19.970;2023-03-22T04:03:06;99167.56;;;8.44;100.00
21086;BME280;34247;50.064;19.970;2023-03-22T04:04:10;99161.53;;;8.42;100.00
21086;BME280;34247;50.064;19.970;2023-03-22T04:05:17;99156.22;;;8.42;100.00
21086;BME280;34247;50.064;19.970;2023-03-22T04:06:21;99158.28;;;8.37;100.00
21086;BME280;34247;50.064;19.970;2023-03-22T04:07:25;99168.88;;;8.37;100.00
21086;BME280;34247;50.064;19.970;2023-03-22T04:08:30;99168.88;;;8.37;100.00
21086;BME280;34247;50.064;19.970;2023-03-22T04:09:37;99175.19;;;8.35;100.00
21086;BME280;34247;50.064;19.970;2023-03-22T04:10:41;99168.03;;;8.37;100.00
21086;BME280;34247;50.064;19.970;2023-03-22T04:11:48;99161.88;;;8.36;100.00
21086;BME280;34247;50.064;19.970;2023-03-22T04:12:52;99167.41;;;8.32;100.00
21086;BME280;34247;50.064;19.970;2023-03-22T04:13:56;99163.69;;;8.36;100.00
21086;BME280;34247;50.064;19.970;2023-03-22T04:14:59;99160.44;;;8.30;100.00
21086;BME280;34247;50.064;19.970;2023-03-22T04:16:04;99170.16;;;8.30;100.00
21086;BME280;34247;50.064;19.970;2023-03-22T04:17:08;99171.84;;;8.31;100.00
21086;BME280;34247;50.064;19.970;2023-03-22T04:18:13;99160.44;;;8.30;100.00
21086;BME280;34247;50.064;19.970;2023-03-22T04:19:17;99169.22;;;8.31;100.00
21086;BME280;34247;50.064;19.970;2023-03-22T04:20:22;99161.19;;;8.33;100.00
21086;BME280;34247;50.064;19.970;2023-03-22T04:21:26;99162.50;;;8.25;100.00
21086;BME280;34247;50.064;19.970;2023-03-22T04:22:30;99162.97;;;8.32;100.00
21086;BME280;34247;50.064;19.970;2023-03-22T04:23:37;99164.59;;;8.35;100.00
21086;BME280;34247;50.064;19.970;2023-03-22T04:24:42;99161.88;;;8.36;100.00
21086;BME280;34247;50.064;19.970;2023-03-22T04:25:46;99159.31;;;8.35;100.00
21086;BME280;34247;50.064;19.970;2023-03-22T04:26:53;99163.41;;;8.40;100.00
21086;BME280;34247;50.064;19.970;2023-03-22T04:27:59;99165.13;;;8.41;100.00
21086;BME280;34247;50.064;19.970;2023-03-22T04:29:04;99167.56;;;8.44;100.00
21086;BME280;34247;50.064;19.970;2023-03-22T04:30:13;99165.75;;;8.45;100.00
21086;BME280;34247;50.064;19.970;2023-03-22T04:31:25;99159.63;;;8.44;100.00
21086;BME280;34247;50.064;19.970;2023-03-22T04:32:29;99160.56;;;8.43;100.00
21086;BME280;34247;50.064;19.970;2023-03-22T04:33:33;99169.34;;;8.44;100.00
21086;BME280;34247;50.064;19.970;2023-03-22T04:34:42;99160.47;;;8.45;100.00
21086;BME280;34247;50.064;19.970;2023-03-22T04:35:46;99166.91;;;8.41;100.00
21086;BME280;34247;50.064;19.970;2023-03-22T04:36:50;99173.22;;;8.38;100.00
21086;BME280;34247;50.064;19.970;2023-03-22T04:37:54;99175.97;;;8.37;100.00
21086;BME280;34247;50.064;19.970;2023-03-22T04:38:59;99174.00;;;8.40;100.00
21086;BME280;34247;50.064;19.970;2023-03-22T04:40:03;99171.41;;;8.39;100.00
21086;BME280;34247;50.064;19.970;2023-03-22T04:41:11;99172.09;;;8.42;100.00
21086;BME280;34247;50.064;19.970;2023-03-22T04:42:15;99174.00;;;8.40;100.00
21086;BME280;34247;50.064;19.970;2023-03-22T04:43:20;99184.44;;;8.27;100.00
21086;BME280;34247;50.064;19.970;2023-03-22T04:44:24;99190.56;;;8.28;100.00
21086;BME280;34247;50.064;19.970;2023-03-22T04:45:28;99188.56;;;8.32;100.00
21086;BME280;34247;50.064;19.970;2023-03-22T04:46:36;99184.22;;;8.30;100.00
21086;BME280;34247;50.064;19.970;2023-03-22T04:47:40;99183.22;;;8.33;100.00
21086;BME280;34247;50.064;19.970;2023-03-22T04:48:44;99186.78;;;8.32;100.00
21086;BME280;34247;50.064;19.970;2023-03-22T04:49:48;99180.63;;;8.32;100.00
21086;BME280;34247;50.064;19.970;2023-03-22T04:50:53;99179.03;;;8.29;100.00
21086;BME280;34247;50.064;19.970;2023-03-22T04:51:57;99184.34;;;8.29;100.00
21086;BME280;34247;50.064;19.970;2023-03-22T04:53:02;99184.34;;;8.29;100.00
21086;BME280;34247;50.064;19.970;2023-03-22T04:54:06;99184.69;;;8.23;100.00
21086;BME280;34247;50.064;19.970;2023-03-22T04:55:10;99183.75;;;8.24;100.00
21086;BME280;34247;50.064;19.970;2023-03-22T04:56:14;99186.38;;;8.24;100.00
21086;BME280;34247;50.064;19.970;2023-03-22T04:57:18;99183.00;;;8.22;100.00
21086;BME280;34247;50.064;19.970;2023-03-22T04:58:25;99187.34;;;8.23;100.00
21086;BME280;34247;50.064;19.970;2023-03-22T04:59:29;99185.63;;;8.22;100.00
21086;BME280;34247;50.064;19.970;2023-03-22T05:00:33;99186.59;;;8.21;100.00
21086;BME280;34247;50.064;19.970;2023-03-22T05:01:37;99178.81;;;8.18;100.00
21086;BME280;34247;50.064;19.970;2023-03-22T05:02:43;99193.00;;;8.17;100.00
21086;BME280;34247;50.064;19.970;2023-03-22T05:03:47;99180.13;;;8.11;100.00
21086;BME280;34247;50.064;19.970;2023-03-22T05:04:51;99188.25;;;8.08;100.00
21086;BME280;34247;50.064;19.970;2023-03-22T05:05:59;99183.91;;;8.07;100.00
21086;BME280;34247;50.064;19.970;2023-03-22T05:07:03;99180.78;;;8.00;100.00
21086;BME280;34247;50.064;19.970;2023-03-22T05:08:07;99186.81;;;8.02;100.00
21086;BME280;34247;50.064;19.970;2023-03-22T05:09:16;99193.81;;;8.03;100.00
21086;BME280;34247;50.064;19.970;2023-03-22T05:10:20;99185.69;;;7.92;100.00
21086;BME280;34247;50.064;19.970;2023-03-22T05:11:24;99192.06;;;7.88;100.00
21086;BME280;34247;50.064;19.970;2023-03-22T05:12:31;99190.97;;;7.92;100.00
21086;BME280;34247;50.064;19.970;2023-03-22T05:13:36;99191.81;;;7.92;100.00
21086;BME280;34247;50.064;19.970;2023-03-22T05:14:41;99191.56;;;7.97;100.00
21086;BME280;34247;50.064;19.970;2023-03-22T05:15:46;99181.25;;;7.92;100.00
21086;BME280;34247;50.064;19.970;2023-03-22T05:16:51;99190.03;;;7.93;100.00
21086;BME280;34247;50.064;19.970;2023-03-22T05:17:55;99190.66;;;7.96;100.00
21086;BME280;34247;50.064;19.970;2023-03-22T05:18:59;99191.56;;;7.97;100.00
21086;BME280;34247;50.064;19.970;2023-03-22T05:20:05;99195.97;;;7.96;100.00
21086;BME280;34247;50.064;19.970;2023-03-22T05:21:15;99190.31;;;8.02;100.00
21086;BME280;34247;50.064;19.970;2023-03-22T05:22:20;99196.28;;;8.06;100.00
21086;BME280;34247;50.064;19.970;2023-03-22T05:23:25;99198.72;;;8.09;100.00
21086;BME280;34247;50.064;19.970;2023-03-22T05:24:30;99197.22;;;8.05;100.00
21086;BME280;34247;50.064;19.970;2023-03-22T05:25:35;99197.41;;;8.02;100.00
21086;BME280;34247;50.064;19.970;2023-03-22T05:26:39;99197.88;;;8.09;100.00
21086;BME280;34247;50.064;19.970;2023-03-22T05:27:44;99200.06;;;8.16;100.00
21086;BME280;34247;50.064;19.970;2023-03-22T05:28:50;99193.78;;;8.19;100.00
21086;BME280;34247;50.064;19.970;2023-03-22T05:29:53;99200.66;;;8.21;100.00
21086;BME280;34247;50.064;19.970;2023-03-22T05:30:57;99201.31;;;8.25;100.00
21086;BME280;34247;50.064;19.970;2023-03-22T05:32:03;99199.34;;;8.28;100.00
21086;BME280;34247;50.064;19.970;2023-03-22T05:33:08;99200.19;;;8.29;100.00
21086;BME280;34247;50.064;19.970;2023-03-22T05:34:12;99188.94;;;8.25;100.00
21086;BME280;34247;50.064;19.970;2023-03-22T05:35:16;99194.16;;;8.27;100.00
21086;BME280;34247;50.064;19.970;2023-03-22T05:36:21;99197.44;;;8.30;100.00
21086;BME280;34247;50.064;19.970;2023-03-22T05:37:25;99199.09;;;8.33;100.00
21086;BME280;34247;50.064;19.970;2023-03-22T05:38:32;99196.44;;;8.33;100.00
21086;BME280;34247;50.064;19.970;2023-03-22T05:39:36;99189.41;;;8.32;100.00
21086;BME280;34247;50.064;19.970;2023-03-22T05:40:43;99192.91;;;8.33;100.00
21086;BME280;34247;50.064;19.970;2023-03-22T05:41:48;99197.28;;;8.34;100.00
21086;BME280;34247;50.064;19.970;2023-03-22T05:42:53;99199.09;;;8.33;100.00
21086;BME280;34247;50.064;19.970;2023-03-22T05:43:57;99203.50;;;8.33;100.00
21086;BME280;34247;50.064;19.970;2023-03-22T05:45:01;99204.38;;;8.33;100.00
21086;BME280;34247;50.064;19.970;2023-03-22T05:46:11;99195.84;;;8.28;100.00
21086;BME280;34247;50.064;19.970;2023-03-22T05:47:14;99199.25;;;8.30;100.00
21086;BME280;34247;50.064;19.970;2023-03-22T05:48:18;99198.41;;;8.29;100.00
21086;BME280;34247;50.064;19.970;2023-03-22T05:49:23;99190.56;;;8.28;100.00
21086;BME280;34247;50.064;19.970;2023-03-22T05:50:29;99185.38;;;8.26;100.00
21086;BME280;34247;50.064;19.970;2023-03-22T05:51:34;99188.66;;;8.30;100.00
21086;BME280;34247;50.064;19.970;2023-03-22T05:52:44;99195.50;;;8.34;100.00
21086;BME280;34247;50.064;19.970;2023-03-22T05:53:48;99185.75;;;8.35;100.00
21086;BME280;34247;50.064;19.970;2023-03-22T05:54:54;99189.88;;;8.40;100.00
21086;BME280;34247;50.064;19.970;2023-03-22T05:55:58;99191.47;;;8.43;100.00
21086;BME280;34247;50.064;19.970;2023-03-22T05:57:03;99189.66;;;8.43;100.00
21086;BME280;34247;50.064;19.970;2023-03-22T05:58:07;99191.38;;;8.44;100.00
21086;BME280;34247;50.064;19.970;2023-03-22T05:59:12;99187.66;;;8.47;100.00
21086;BME280;34247;50.064;19.970;2023-03-22T06:00:17;99180.41;;;8.50;100.00
21086;BME280;34247;50.064;19.970;2023-03-22T06:01:22;99185.91;;;8.47;100.00
21086;BME280;34247;50.064;19.970;2023-03-22T06:02:30;99193.44;;;8.53;100.00
21086;BME280;34247;50.064;19.970;2023-03-22T06:03:34;99191.56;;;8.55;100.00
21086;BME280;34247;50.064;19.970;2023-03-22T06:04:38;99195.34;;;8.51;100.00
21086;BME280;34247;50.064;19.970;2023-03-22T06:05:47;99203.47;;;8.48;100.00
21086;BME280;34247;50.064;19.970;2023-03-22T06:06:53;99193.63;;;8.50;100.00
21086;BME280;34247;50.064;19.970;2023-03-22T06:07:58;99195.69;;;8.45;100.00
21086;BME280;34247;50.064;19.970;2023-03-22T06:09:10;99200.03;;;8.46;100.00
21086;BME280;34247;50.064;19.970;2023-03-22T06:10:20;99206.13;;;8.48;100.00
21086;BME280;34247;50.064;19.970;2023-03-22T06:11:27;99202.88;;;8.43;100.00
21086;BME280;34247;50.064;19.970;2023-03-22T06:12:31;99205.53;;;8.43;100.00
21086;BME280;34247;50.064;19.970;2023-03-22T06:13:35;99201.94;;;8.44;100.00
21086;BME280;34247;50.064;19.970;2023-03-22T06:14:39;99200.03;;;8.46;100.00
21086;BME280;34247;50.064;19.970;2023-03-22T06:15:44;99201.84;;;8.46;100.00
21086;BME280;34247;50.064;19.970;2023-03-22T06:16:50;99206.28;;;8.45;100.00
21086;BME280;34247;50.064;19.970;2023-03-22T06:17:54;99206.47;;;8.42;100.00
21086;BME280;34247;50.064;19.970;2023-03-22T06:18:58;99202.53;;;8.49;100.00
21086;BME280;34247;50.064;19.970;2023-03-22T06:20:07;99199.41;;;8.57;100.00
21086;BME280;34247;50.064;19.970;2023-03-22T06:21:13;99211.69;;;8.58;100.00
21086;BME280;34247;50.064;19.970;2023-03-22T06:22:19;99205.91;;;8.66;100.00
21086;BME280;34247;50.064;19.970;2023-03-22T06:23:23;99208.28;;;8.70;100.00